createdAt,value
2022-07-26T00:01:48.144Z,100783.00
2022-07-26T00:12:10.592Z,100762.00
2022-07-26T00:22:36.302Z,100774.00
2022-07-26T00:32:57.747Z,100766.00
2022-07-26T00:43:21.063Z,100765.00
2022-07-26T00:53:42.690Z,100759.00
2022-07-26T01:04:06.459Z,100760.00
2022-07-26T01:14:28.291Z,100761.00
2022-07-26T01:24:51.560Z,100793.00
2022-07-26T01:35:13.020Z,100784.00
2022-07-26T01:45:36.229Z,100802.00
2022-07-26T01:55:57.654Z,100807.00
2022-07-26T02:06:20.567Z,100817.00
2022-07-26T02:16:41.856Z,100803.00
2022-07-26T02:27:06.251Z,100810.00
2022-07-26T02:37:27.898Z,100816.00
2022-07-26T02:47:52.910Z,100807.00
2022-07-26T02:58:15.579Z,100809.00
2022-07-26T03:08:38.620Z,100796.00
2022-07-26T03:19:01.736Z,100797.00
2022-07-26T03:29:25.224Z,100797.00
2022-07-26T03:39:46.626Z,100800.00
2022-07-26T03:50:13.676Z,100808.00
2022-07-26T04:00:35.504Z,100812.00
2022-07-26T04:10:58.772Z,100812.00
2022-07-26T04:21:20.054Z,100808.00
2022-07-26T04:31:43.220Z,100809.00
2022-07-26T04:42:05.131Z,100820.00
2022-07-26T04:52:27.945Z,100829.00
2022-07-26T05:02:50.417Z,100845.00
2022-07-26T05:13:13.370Z,100849.00
2022-07-26T05:23:35.260Z,100861.00
2022-07-26T05:33:57.877Z,100871.00
2022-07-26T05:44:19.554Z,100887.00
2022-07-26T05:54:44.227Z,100876.00
2022-07-26T06:05:06.568Z,100888.00
2022-07-26T06:15:29.317Z,100890.00
2022-07-26T06:25:51.729Z,100890.00
2022-07-26T06:36:15.035Z,100888.00
2022-07-26T06:46:36.800Z,100903.00
2022-07-26T06:56:59.863Z,100889.00
2022-07-26T07:07:21.461Z,100914.00
2022-07-26T07:17:44.339Z,100913.00
2022-07-26T07:28:06.395Z,100903.00
2022-07-26T07:38:29.836Z,100930.00
2022-07-26T07:48:53.799Z,100929.00
2022-07-26T07:59:16.936Z,100912.00
2022-07-26T08:09:38.413Z,100925.00
2022-07-26T08:20:06.870Z,100915.00
2022-07-26T08:30:30.431Z,100918.00
2022-07-26T08:40:54.096Z,100930.00
2022-07-26T08:51:17.394Z,100936.00
2022-07-26T09:01:55.925Z,100923.00
2022-07-26T09:12:19.320Z,100921.00
2022-07-26T09:23:02.647Z,100956.00
2022-07-26T09:33:24.917Z,100935.00
2022-07-26T09:43:53.760Z,100953.00
2022-07-26T09:54:19.552Z,100954.00
2022-07-26T10:04:43.725Z,100934.00
2022-07-26T10:15:05.953Z,100955.00
2022-07-26T10:25:49.693Z,100939.00
2022-07-26T10:36:23.982Z,100957.00
2022-07-26T10:47:15.750Z,100966.00
2022-07-26T10:57:39.832Z,100965.00
2022-07-26T11:08:09.280Z,100967.00
2022-07-26T11:18:35.358Z,100964.00
2022-07-26T11:29:06.452Z,100958.00
2022-07-26T11:39:30.601Z,100955.00
2022-07-26T11:50:13.886Z,100947.00
2022-07-26T12:00:35.849Z,100956.00
2022-07-26T12:10:58.783Z,100962.00
2022-07-26T12:21:21.713Z,100974.00
2022-07-26T12:31:45.134Z,101035.00
2022-07-26T12:42:33.342Z,101078.00
2022-07-26T12:53:03.682Z,101080.00
2022-07-26T13:03:25.333Z,101121.00
2022-07-26T13:13:49.436Z,101085.00
2022-07-26T13:24:11.949Z,101113.00
2022-07-26T13:34:39.105Z,101105.00
2022-07-26T13:45:00.825Z,101107.00
2022-07-26T13:55:23.795Z,101102.00
2022-07-26T14:05:45.210Z,101088.00
2022-07-26T14:16:08.282Z,101100.00
2022-07-26T14:26:30.936Z,101118.00
2022-07-26T14:36:54.053Z,101114.00
2022-07-26T14:47:15.562Z,101131.00
2022-07-26T14:57:40.190Z,101137.00
2022-07-26T15:08:06.097Z,101139.00
2022-07-26T15:18:29.776Z,101129.00
2022-07-26T15:28:51.495Z,101125.00
2022-07-26T15:39:18.316Z,101125.00
2022-07-26T15:49:40.908Z,101120.00
2022-07-26T16:00:11.735Z,101122.00
2022-07-26T16:10:33.479Z,101114.00
2022-07-26T16:20:56.820Z,101124.00
2022-07-26T16:31:18.376Z,101108.00
2022-07-26T16:41:41.552Z,101117.00
2022-07-26T16:52:02.940Z,101132.00
2022-07-26T17:02:25.738Z,101123.00
2022-07-26T17:12:47.591Z,101137.00
2022-07-26T17:23:11.274Z,101125.00
2022-07-26T17:33:32.946Z,101113.00
2022-07-26T17:43:55.992Z,101128.00
2022-07-26T17:54:17.209Z,101146.00
2022-07-26T18:04:40.615Z,101151.00
2022-07-26T18:15:02.506Z,101153.00
2022-07-26T18:25:25.759Z,101156.00
2022-07-26T18:35:47.662Z,101163.00
2022-07-26T18:46:10.752Z,101181.00
2022-07-26T18:56:32.530Z,101191.00
2022-07-26T19:06:56.997Z,101205.00
2022-07-26T19:17:18.988Z,101214.00
2022-07-26T19:27:42.076Z,101217.00
2022-07-26T19:38:04.031Z,101225.00
2022-07-26T19:48:27.352Z,101237.00
2022-07-26T19:58:49.404Z,101245.00
2022-07-26T20:09:13.329Z,101242.00
2022-07-26T20:19:35.044Z,101255.00
2022-07-26T20:30:01.147Z,101263.00
2022-07-26T20:40:23.036Z,101279.00
2022-07-26T20:50:49.087Z,101280.00
2022-07-26T21:01:12.497Z,101278.00
2022-07-26T21:11:36.298Z,101288.00
2022-07-26T21:21:58.054Z,101303.00
2022-07-26T21:32:21.388Z,101306.00
2022-07-26T21:42:43.063Z,101305.00
2022-07-26T21:53:05.760Z,101321.00
2022-07-26T22:03:27.370Z,101341.00
2022-07-26T22:13:50.294Z,101365.00
2022-07-26T22:24:12.137Z,101386.00
2022-07-26T22:34:35.373Z,101386.00
2022-07-26T22:44:57.309Z,101379.00
2022-07-26T22:55:20.442Z,101385.00
2022-07-26T23:05:46.525Z,101391.00
2022-07-26T23:16:11.029Z,101403.00
2022-07-26T23:26:32.645Z,101405.00
2022-07-26T23:36:55.920Z,101401.00
2022-07-26T23:47:17.640Z,101397.00
2022-07-26T23:57:40.962Z,101405.00
